sensor_id;sensor_type;location;lat;lon;timestamp;pressure;altitude;pressure_sealevel;temperature;humidity
59545;BME280;45368;55.002;-1.592;2022-11-12T00:00:20;101585.17;;;14.35;61.33
59545;BME280;45368;55.002;-1.592;2022-11-12T00:02:47;101589.66;;;14.45;62.11
59545;BME280;45368;55.002;-1.592;2022-11-12T00:05:15;101584.32;;;14.51;61.85
59545;BME280;45368;55.002;-1.592;2022-11-12T00:07:42;101576.58;;;14.52;60.81
59545;BME280;45368;55.002;-1.592;2022-11-12T00:10:10;101571.78;;;14.76;59.99
59545;BME280;45368;55.002;-1.592;2022-11-12T00:12:36;101566.64;;;15.09;59.22
59545;BME280;45368;55.002;-1.592;2022-11-12T00:15:05;101562.64;;;14.81;60.11
59545;BME280;45368;55.002;-1.592;2022-11-12T00:17:33;101553.79;;;14.95;61.03
59545;BME280;45368;55.002;-1.592;2022-11-12T00:20:00;101548.04;;;15.39;59.95
59545;BME280;45368;55.002;-1.592;2022-11-12T00:22:28;101548.80;;;14.96;60.34
59545;BME280;45368;55.002;-1.592;2022-11-12T00:24:56;101548.88;;;14.78;60.36
59545;BME280;45368;55.002;-1.592;2022-11-12T00:27:23;101551.82;;;15.44;58.30
59545;BME280;45368;55.002;-1.592;2022-11-12T00:29:51;101562.98;;;15.66;57.09
59545;BME280;45368;55.002;-1.592;2022-11-12T00:32:18;101573.39;;;14.19;61.07
59545;BME280;45368;55.002;-1.592;2022-11-12T00:34:44;101583.79;;;14.38;60.81
59545;BME280;45368;55.002;-1.592;2022-11-12T00:37:12;101591.90;;;14.23;62.37
59545;BME280;45368;55.002;-1.592;2022-11-12T00:39:39;101602.55;;;13.98;62.74
59545;BME280;45368;55.002;-1.592;2022-11-12T00:42:06;101612.65;;;14.39;61.65
59545;BME280;45368;55.002;-1.592;2022-11-12T00:44:32;101614.37;;;14.82;60.39
59545;BME280;45368;55.002;-1.592;2022-11-12T00:46:59;101619.18;;;14.50;60.95
59545;BME280;45368;55.002;-1.592;2022-11-12T00:49:26;101622.82;;;14.78;61.02
59545;BME280;45368;55.002;-1.592;2022-11-12T00:51:53;101624.07;;;14.67;60.32
59545;BME280;45368;55.002;-1.592;2022-11-12T00:54:20;101623.97;;;14.88;59.26
59545;BME280;45368;55.002;-1.592;2022-11-12T00:56:52;101623.49;;;14.42;60.20
59545;BME280;45368;55.002;-1.592;2022-11-12T00:59:20;101625.89;;;14.62;59.84
59545;BME280;45368;55.002;-1.592;2022-11-12T01:01:47;101624.39;;;14.56;60.30
59545;BME280;45368;55.002;-1.592;2022-11-12T01:04:14;101622.13;;;15.30;58.65
59545;BME280;45368;55.002;-1.592;2022-11-12T01:06:41;101612.96;;;15.53;58.35
59545;BME280;45368;55.002;-1.592;2022-11-12T01:09:09;101608.12;;;15.50;58.45
59545;BME280;45368;55.002;-1.592;2022-11-12T01:11:36;101611.39;;;15.48;58.56
59545;BME280;45368;55.002;-1.592;2022-11-12T01:14:05;101617.59;;;15.20;59.15
59545;BME280;45368;55.002;-1.592;2022-11-12T01:16:40;101616.46;;;15.70;57.50
59545;BME280;45368;55.002;-1.592;2022-11-12T01:19:10;101627.09;;;14.98;59.02
59545;BME280;45368;55.002;-1.592;2022-11-12T01:21:40;101622.81;;;15.68;57.19
59545;BME280;45368;55.002;-1.592;2022-11-12T01:24:08;101632.37;;;15.25;58.60
59545;BME280;45368;55.002;-1.592;2022-11-12T01:26:36;101638.67;;;15.50;58.22
59545;BME280;45368;55.002;-1.592;2022-11-12T01:29:04;101634.33;;;16.20;56.84
59545;BME280;45368;55.002;-1.592;2022-11-12T01:31:33;101636.47;;;15.66;57.80
59545;BME280;45368;55.002;-1.592;2022-11-12T01:34:03;101639.06;;;15.25;58.37
59545;BME280;45368;55.002;-1.592;2022-11-12T01:36:32;101639.12;;;15.67;57.54
59545;BME280;45368;55.002;-1.592;2022-11-12T01:39:00;101636.84;;;15.28;58.33
59545;BME280;45368;55.002;-1.592;2022-11-12T01:41:29;101639.85;;;15.62;58.12
59545;BME280;45368;55.002;-1.592;2022-11-12T01:44:16;101641.17;;;14.91;59.65
59545;BME280;45368;55.002;-1.592;2022-11-12T01:46:52;101637.98;;;15.40;58.54
59545;BME280;45368;55.002;-1.592;2022-11-12T01:49:24;101638.55;;;14.43;61.26
59545;BME280;45368;55.002;-1.592;2022-11-12T01:51:54;101635.73;;;13.67;63.64
59545;BME280;45368;55.002;-1.592;2022-11-12T01:54:22;101634.57;;;13.10;65.54
59545;BME280;45368;55.002;-1.592;2022-11-12T01:56:50;101644.20;;;13.94;64.02
59545;BME280;45368;55.002;-1.592;2022-11-12T01:59:21;101647.80;;;13.52;65.53
59545;BME280;45368;55.002;-1.592;2022-11-12T02:01:51;101643.91;;;13.07;66.02
59545;BME280;45368;55.002;-1.592;2022-11-12T02:04:20;101643.10;;;12.66;68.19
59545;BME280;45368;55.002;-1.592;2022-11-12T02:06:49;101642.75;;;13.05;66.37
59545;BME280;45368;55.002;-1.592;2022-11-12T02:09:17;101643.93;;;13.15;66.35
59545;BME280;45368;55.002;-1.592;2022-11-12T02:11:45;101645.71;;;13.05;67.34
59545;BME280;45368;55.002;-1.592;2022-11-12T02:14:12;101644.72;;;13.26;66.30
59545;BME280;45368;55.002;-1.592;2022-11-12T02:16:42;101645.56;;;13.61;65.73
59545;BME280;45368;55.002;-1.592;2022-11-12T02:19:12;101648.82;;;12.95;67.37
59545;BME280;45368;55.002;-1.592;2022-11-12T02:21:41;101643.00;;;13.48;65.64
59545;BME280;45368;55.002;-1.592;2022-11-12T02:24:32;101642.51;;;13.58;65.79
59545;BME280;45368;55.002;-1.592;2022-11-12T02:26:59;101637.57;;;12.82;67.81
59545;BME280;45368;55.002;-1.592;2022-11-12T02:29:27;101627.86;;;13.49;65.57
59545;BME280;45368;55.002;-1.592;2022-11-12T02:31:53;101620.44;;;14.28;63.12
59545;BME280;45368;55.002;-1.592;2022-11-12T02:34:20;101614.71;;;14.33;61.78
59545;BME280;45368;55.002;-1.592;2022-11-12T02:36:47;101622.12;;;14.50;61.86
59545;BME280;45368;55.002;-1.592;2022-11-12T02:39:14;101626.07;;;14.36;61.25
59545;BME280;45368;55.002;-1.592;2022-11-12T02:41:41;101624.09;;;14.45;61.11
59545;BME280;45368;55.002;-1.592;2022-11-12T02:44:08;101627.20;;;14.65;60.68
59545;BME280;45368;55.002;-1.592;2022-11-12T02:46:36;101629.17;;;14.87;60.31
59545;BME280;45368;55.002;-1.592;2022-11-12T02:49:03;101627.47;;;14.85;59.66
59545;BME280;45368;55.002;-1.592;2022-11-12T02:51:29;101622.23;;;14.76;59.34
59545;BME280;45368;55.002;-1.592;2022-11-12T02:53:56;101618.82;;;14.82;59.06
59545;BME280;45368;55.002;-1.592;2022-11-12T02:56:24;101608.65;;;15.55;56.99
59545;BME280;45368;55.002;-1.592;2022-11-12T02:58:51;101621.11;;;13.94;60.81
59545;BME280;45368;55.002;-1.592;2022-11-12T03:01:18;101621.52;;;14.81;58.97
59545;BME280;45368;55.002;-1.592;2022-11-12T03:03:46;101627.44;;;13.93;61.56
59545;BME280;45368;55.002;-1.592;2022-11-12T03:06:13;101629.75;;;13.97;60.83
59545;BME280;45368;55.002;-1.592;2022-11-12T03:08:40;101626.07;;;14.31;60.34
59545;BME280;45368;55.002;-1.592;2022-11-12T03:11:09;101626.61;;;14.83;59.57
59545;BME280;45368;55.002;-1.592;2022-11-12T03:13:39;101624.65;;;14.35;60.83
59545;BME280;45368;55.002;-1.592;2022-11-12T03:16:07;101620.91;;;14.74;59.89
59545;BME280;45368;55.002;-1.592;2022-11-12T03:18:34;101618.89;;;13.82;61.74
59545;BME280;45368;55.002;-1.592;2022-11-12T03:21:03;101615.82;;;13.82;62.54
59545;BME280;45368;55.002;-1.592;2022-11-12T03:23:30;101617.76;;;14.19;61.15
59545;BME280;45368;55.002;-1.592;2022-11-12T03:25:57;101614.41;;;14.49;60.17
59545;BME280;45368;55.002;-1.592;2022-11-12T03:28:24;101612.35;;;14.89;59.17
59545;BME280;45368;55.002;-1.592;2022-11-12T03:30:56;101608.23;;;15.24;58.00
59545;BME280;45368;55.002;-1.592;2022-11-12T03:33:24;101609.67;;;15.67;56.88
59545;BME280;45368;55.002;-1.592;2022-11-12T03:35:52;101613.39;;;15.41;56.95
59545;BME280;45368;55.002;-1.592;2022-11-12T03:38:19;101607.56;;;15.95;55.85
59545;BME280;45368;55.002;-1.592;2022-11-12T03:40:46;101614.85;;;15.53;56.28
59545;BME280;45368;55.002;-1.592;2022-11-12T03:43:14;101614.76;;;15.79;57.01
59545;BME280;45368;55.002;-1.592;2022-11-12T03:45:40;101610.46;;;14.29;59.26
59545;BME280;45368;55.002;-1.592;2022-11-12T03:48:07;101604.98;;;14.79;58.94
59545;BME280;45368;55.002;-1.592;2022-11-12T03:50:34;101604.16;;;14.48;59.93
59545;BME280;45368;55.002;-1.592;2022-11-12T03:53:02;101611.24;;;14.19;59.36
59545;BME280;45368;55.002;-1.592;2022-11-12T03:55:29;101618.43;;;13.78;61.42
59545;BME280;45368;55.002;-1.592;2022-11-12T03:57:57;101616.28;;;13.18;63.49
59545;BME280;45368;55.002;-1.592;2022-11-12T04:00:25;101613.19;;;12.69;65.28
59545;BME280;45368;55.002;-1.592;2022-11-12T04:02:53;101611.83;;;13.28;65.03
59545;BME280;45368;55.002;-1.592;2022-11-12T04:05:22;101607.98;;;12.50;66.96
59545;BME280;45368;55.002;-1.592;2022-11-12T04:07:50;101609.35;;;12.66;66.44
59545;BME280;45368;55.002;-1.592;2022-11-12T04:10:22;101613.67;;;12.29;67.15
59545;BME280;45368;55.002;-1.592;2022-11-12T04:12:49;101608.01;;;13.01;65.45
59545;BME280;45368;55.002;-1.592;2022-11-12T04:15:15;101602.11;;;13.66;63.26
59545;BME280;45368;55.002;-1.592;2022-11-12T04:17:42;101599.18;;;14.06;61.87
59545;BME280;45368;55.002;-1.592;2022-11-12T04:20:09;101601.25;;;14.07;61.02
59545;BME280;45368;55.002;-1.592;2022-11-12T04:22:37;101600.43;;;14.09;60.16
59545;BME280;45368;55.002;-1.592;2022-11-12T04:25:04;101604.35;;;15.24;57.83
59545;BME280;45368;55.002;-1.592;2022-11-12T04:27:33;101607.77;;;15.14;57.09
59545;BME280;45368;55.002;-1.592;2022-11-12T04:30:01;101613.08;;;15.06;58.12
59545;BME280;45368;55.002;-1.592;2022-11-12T04:32:29;101616.06;;;14.37;60.09
59545;BME280;45368;55.002;-1.592;2022-11-12T04:34:57;101613.18;;;13.46;62.22
59545;BME280;45368;55.002;-1.592;2022-11-12T04:37:27;101610.72;;;13.07;63.31
59545;BME280;45368;55.002;-1.592;2022-11-12T04:39:55;101606.54;;;13.53;61.99
59545;BME280;45368;55.002;-1.592;2022-11-12T04:42:22;101610.71;;;14.14;60.97
59545;BME280;45368;55.002;-1.592;2022-11-12T04:44:48;101610.48;;;13.29;62.10
59545;BME280;45368;55.002;-1.592;2022-11-12T04:47:15;101610.25;;;13.35;62.16
59545;BME280;45368;55.002;-1.592;2022-11-12T04:49:42;101613.13;;;12.86;63.23
59545;BME280;45368;55.002;-1.592;2022-11-12T04:52:10;101614.68;;;12.88;63.57
59545;BME280;45368;55.002;-1.592;2022-11-12T04:54:37;101616.64;;;13.28;62.57
59545;BME280;45368;55.002;-1.592;2022-11-12T04:57:05;101611.73;;;12.90;63.49
59545;BME280;45368;55.002;-1.592;2022-11-12T04:59:32;101615.83;;;12.92;64.12
59545;BME280;45368;55.002;-1.592;2022-11-12T05:01:59;101617.30;;;11.65;67.40
59545;BME280;45368;55.002;-1.592;2022-11-12T05:04:25;101615.48;;;12.48;66.10
59545;BME280;45368;55.002;-1.592;2022-11-12T05:06:52;101616.16;;;12.02;66.59
59545;BME280;45368;55.002;-1.592;2022-11-12T05:09:22;101621.72;;;11.82;68.89
59545;BME280;45368;55.002;-1.592;2022-11-12T05:11:50;101619.14;;;11.98;67.27
59545;BME280;45368;55.002;-1.592;2022-11-12T05:14:17;101622.94;;;12.25;66.42
59545;BME280;45368;55.002;-1.592;2022-11-12T05:16:45;101628.17;;;11.59;68.50
59545;BME280;45368;55.002;-1.592;2022-11-12T05:19:12;101629.72;;;11.33;69.14
59545;BME280;45368;55.002;-1.592;2022-11-12T05:21:55;101625.27;;;10.71;70.68
59545;BME280;45368;55.002;-1.592;2022-11-12T05:24:22;101625.60;;;11.32;69.26
59545;BME280;45368;55.002;-1.592;2022-11-12T05:26:49;101626.53;;;10.55;71.45
59545;BME280;45368;55.002;-1.592;2022-11-12T05:29:16;101626.20;;;11.03;71.35
59545;BME280;45368;55.002;-1.592;2022-11-12T05:31:44;101631.16;;;10.69;72.20
59545;BME280;45368;55.002;-1.592;2022-11-12T05:34:12;101631.13;;;10.49;72.70
59545;BME280;45368;55.002;-1.592;2022-11-12T05:36:39;101630.92;;;10.80;71.41
59545;BME280;45368;55.002;-1.592;2022-11-12T05:39:06;101628.06;;;11.18;70.26
59545;BME280;45368;55.002;-1.592;2022-11-12T05:41:33;101627.34;;;11.13;70.39
59545;BME280;45368;55.002;-1.592;2022-11-12T05:44:00;101626.26;;;10.57;71.21
59545;BME280;45368;55.002;-1.592;2022-11-12T05:46:27;101626.47;;;11.52;70.17
59545;BME280;45368;55.002;-1.592;2022-11-12T05:48:54;101625.16;;;11.23;70.46
59545;BME280;45368;55.002;-1.592;2022-11-12T05:51:20;101630.81;;;10.59;72.21
59545;BME280;45368;55.002;-1.592;2022-11-12T05:53:47;101641.85;;;10.11;74.95
59545;BME280;45368;55.002;-1.592;2022-11-12T05:56:15;101647.35;;;10.10;74.90
59545;BME280;45368;55.002;-1.592;2022-11-12T05:58:41;101645.41;;;10.33;73.53
59545;BME280;45368;55.002;-1.592;2022-11-12T06:01:08;101644.04;;;10.15;73.54
59545;BME280;45368;55.002;-1.592;2022-11-12T06:03:36;101646.18;;;10.15;74.16
59545;BME280;45368;55.002;-1.592;2022-11-12T06:06:03;101647.48;;;9.82;73.67
59545;BME280;45368;55.002;-1.592;2022-11-12T06:08:30;101644.47;;;10.06;74.25
59545;BME280;45368;55.002;-1.592;2022-11-12T06:10:57;101643.72;;;10.55;72.61
59545;BME280;45368;55.002;-1.592;2022-11-12T06:24:18;101641.22;;;11.80;67.61
59545;BME280;45368;55.002;-1.592;2022-11-12T06:26:46;101641.18;;;11.89;65.94
59545;BME280;45368;55.002;-1.592;2022-11-12T06:29:13;101636.18;;;12.40;64.85
59545;BME280;45368;55.002;-1.592;2022-11-12T06:31:40;101633.74;;;13.23;62.66
59545;BME280;45368;55.002;-1.592;2022-11-12T06:34:07;101630.03;;;12.99;62.98
59545;BME280;45368;55.002;-1.592;2022-11-12T06:36:34;101632.29;;;12.93;63.25
59545;BME280;45368;55.002;-1.592;2022-11-12T06:39:02;101635.90;;;12.87;62.91
59545;BME280;45368;55.002;-1.592;2022-11-12T06:41:29;101638.20;;;12.41;63.43
59545;BME280;45368;55.002;-1.592;2022-11-12T06:43:56;101638.83;;;13.03;62.32
59545;BME280;45368;55.002;-1.592;2022-11-12T06:46:23;101645.34;;;11.92;65.24
59545;BME280;45368;55.002;-1.592;2022-11-12T06:48:50;101642.65;;;12.23;64.51
59545;BME280;45368;55.002;-1.592;2022-11-12T06:51:19;101634.11;;;13.06;62.87
59545;BME280;45368;55.002;-1.592;2022-11-12T06:53:47;101633.71;;;12.69;63.48
59545;BME280;45368;55.002;-1.592;2022-11-12T06:56:14;101640.31;;;11.95;63.70
59545;BME280;45368;55.002;-1.592;2022-11-12T06:58:47;101635.49;;;12.98;61.66
59545;BME280;45368;55.002;-1.592;2022-11-12T07:01:15;101636.38;;;12.87;62.83
59545;BME280;45368;55.002;-1.592;2022-11-12T07:03:43;101637.65;;;12.67;63.42
59545;BME280;45368;55.002;-1.592;2022-11-12T07:06:12;101635.42;;;13.23;61.74
59545;BME280;45368;55.002;-1.592;2022-11-12T07:08:40;101636.76;;;12.94;62.02
59545;BME280;45368;55.002;-1.592;2022-11-12T07:11:08;101639.89;;;12.93;61.54
59545;BME280;45368;55.002;-1.592;2022-11-12T07:13:36;101643.27;;;13.30;61.57
59545;BME280;45368;55.002;-1.592;2022-11-12T07:16:05;101642.09;;;13.47;60.56
59545;BME280;45368;55.002;-1.592;2022-11-12T07:18:34;101640.26;;;13.55;60.37
59545;BME280;45368;55.002;-1.592;2022-11-12T07:21:03;101642.93;;;13.51;60.13
59545;BME280;45368;55.002;-1.592;2022-11-12T07:23:32;101645.68;;;13.17;60.85
59545;BME280;45368;55.002;-1.592;2022-11-12T07:26:02;101648.47;;;14.34;58.16
59545;BME280;45368;55.002;-1.592;2022-11-12T07:28:30;101651.31;;;14.42;57.36
59545;BME280;45368;55.002;-1.592;2022-11-12T07:30:58;101659.60;;;14.66;56.62
59545;BME280;45368;55.002;-1.592;2022-11-12T07:33:27;101660.83;;;14.76;56.22
59545;BME280;45368;55.002;-1.592;2022-11-12T07:35:59;101672.57;;;14.24;57.92
59545;BME280;45368;55.002;-1.592;2022-11-12T07:38:27;101675.10;;;14.20;59.20
59545;BME280;45368;55.002;-1.592;2022-11-12T07:40:59;101678.23;;;13.46;60.37
59545;BME280;45368;55.002;-1.592;2022-11-12T07:43:27;101686.24;;;13.02;62.40
59545;BME280;45368;55.002;-1.592;2022-11-12T07:45:57;101693.95;;;12.10;64.69
59545;BME280;45368;55.002;-1.592;2022-11-12T07:48:25;101695.01;;;12.13;64.43
59545;BME280;45368;55.002;-1.592;2022-11-12T07:50:58;101696.75;;;12.50;64.67
59545;BME280;45368;55.002;-1.592;2022-11-12T07:53:25;101705.27;;;11.98;66.28
59545;BME280;45368;55.002;-1.592;2022-11-12T07:55:53;101698.70;;;12.36;64.88
59545;BME280;45368;55.002;-1.592;2022-11-12T07:58:21;101704.46;;;11.69;65.94
59545;BME280;45368;55.002;-1.592;2022-11-12T08:00:48;101707.09;;;11.40;67.82
59545;BME280;45368;55.002;-1.592;2022-11-12T08:03:15;101707.01;;;11.30;68.23
59545;BME280;45368;55.002;-1.592;2022-11-12T08:05:43;101708.10;;;10.74;70.33
59545;BME280;45368;55.002;-1.592;2022-11-12T08:08:10;101711.94;;;10.79;70.06
59545;BME280;45368;55.002;-1.592;2022-11-12T08:10:38;101711.38;;;10.63;70.69
59545;BME280;45368;55.002;-1.592;2022-11-12T08:13:05;101717.22;;;10.95;69.90
59545;BME280;45368;55.002;-1.592;2022-11-12T08:15:33;101721.46;;;10.81;69.53
59545;BME280;45368;55.002;-1.592;2022-11-12T08:18:00;101726.76;;;10.42;71.26
59545;BME280;45368;55.002;-1.592;2022-11-12T08:20:26;101721.26;;;10.92;68.78
59545;BME280;45368;55.002;-1.592;2022-11-12T08:22:53;101728.82;;;9.75;73.76
59545;BME280;45368;55.002;-1.592;2022-11-12T08:25:25;101730.07;;;10.33;71.69
59545;BME280;45368;55.002;-1.592;2022-11-12T08:27:55;101729.65;;;9.85;72.68
59545;BME280;45368;55.002;-1.592;2022-11-12T08:30:23;101725.42;;;9.99;74.27
59545;BME280;45368;55.002;-1.592;2022-11-12T08:32:55;101725.33;;;10.15;73.44
59545;BME280;45368;55.002;-1.592;2022-11-12T08:35:22;101720.23;;;10.59;70.94
59545;BME280;45368;55.002;-1.592;2022-11-12T08:37:49;101718.48;;;10.58;71.25
59545;BME280;45368;55.002;-1.592;2022-11-12T08:40:17;101717.49;;;10.81;70.37
59545;BME280;45368;55.002;-1.592;2022-11-12T08:42:44;101718.61;;;10.62;70.84
59545;BME280;45368;55.002;-1.592;2022-11-12T08:45:12;101722.39;;;10.65;71.27
59545;BME280;45368;55.002;-1.592;2022-11-12T08:47:39;101722.75;;;10.36;71.15
59545;BME280;45368;55.002;-1.592;2022-11-12T08:50:08;101722.26;;;10.96;69.21
59545;BME280;45368;55.002;-1.592;2022-11-12T08:52:35;101723.80;;;10.98;68.51
59545;BME280;45368;55.002;-1.592;2022-11-12T08:55:03;101721.29;;;11.23;68.78
59545;BME280;45368;55.002;-1.592;2022-11-12T08:57:30;101726.30;;;10.83;69.85
59545;BME280;45368;55.002;-1.592;2022-11-12T08:59:57;101725.53;;;10.38;70.75
59545;BME280;45368;55.002;-1.592;2022-11-12T09:02:24;101722.83;;;10.91;68.49
59545;BME280;45368;55.002;-1.592;2022-11-12T09:04:52;101718.98;;;11.79;66.84
59545;BME280;45368;55.002;-1.592;2022-11-12T09:07:20;101711.09;;;12.57;63.87
59545;BME280;45368;55.002;-1.592;2022-11-12T09:09:47;101717.30;;;11.95;65.69
59545;BME280;45368;55.002;-1.592;2022-11-12T09:12:15;101711.30;;;12.19;64.66
59545;BME280;45368;55.002;-1.592;2022-11-12T09:14:42;101714.63;;;12.64;63.70
59545;BME280;45368;55.002;-1.592;2022-11-12T09:17:09;101708.17;;;13.00;62.57
59545;BME280;45368;55.002;-1.592;2022-11-12T09:19:37;101710.50;;;12.77;61.79
59545;BME280;45368;55.002;-1.592;2022-11-12T09:22:03;101698.88;;;14.40;58.99
59545;BME280;45368;55.002;-1.592;2022-11-12T09:24:30;101701.38;;;13.61;58.61
59545;BME280;45368;55.002;-1.592;2022-11-12T09:26:58;101707.45;;;13.11;60.63
59545;BME280;45368;55.002;-1.592;2022-11-12T09:29:25;101716.75;;;11.69;64.53
59545;BME280;45368;55.002;-1.592;2022-11-12T09:31:52;101714.22;;;11.92;65.32
59545;BME280;45368;55.002;-1.592;2022-11-12T09:34:20;101706.90;;;11.74;65.91
59545;BME280;45368;55.002;-1.592;2022-11-12T09:36:47;101704.63;;;11.73;66.07
59545;BME280;45368;55.002;-1.592;2022-11-12T09:39:14;101703.66;;;11.99;65.65
59545;BME280;45368;55.002;-1.592;2022-11-12T09:41:42;101702.09;;;11.76;64.49
59545;BME280;45368;55.002;-1.592;2022-11-12T09:44:11;101709.68;;;11.45;66.74
59545;BME280;45368;55.002;-1.592;2022-11-12T09:46:45;101713.12;;;11.41;67.03
59545;BME280;45368;55.002;-1.592;2022-11-12T09:49:17;101712.76;;;11.62;67.67
59545;BME280;45368;55.002;-1.592;2022-11-12T09:51:49;101709.88;;;10.77;68.49
59545;BME280;45368;55.002;-1.592;2022-11-12T09:54:21;101696.45;;;11.71;66.63
59545;BME280;45368;55.002;-1.592;2022-11-12T09:56:49;101691.98;;;11.78;66.44
59545;BME280;45368;55.002;-1.592;2022-11-12T09:59:17;101697.72;;;11.49;67.36
59545;BME280;45368;55.002;-1.592;2022-11-12T10:01:54;101697.65;;;11.53;66.51
59545;BME280;45368;55.002;-1.592;2022-11-12T10:04:44;101697.50;;;11.21;68.33
59545;BME280;45368;55.002;-1.592;2022-11-12T10:07:22;101694.09;;;10.96;67.99
59545;BME280;45368;55.002;-1.592;2022-11-12T10:10:00;101691.66;;;10.61;69.89
59545;BME280;45368;55.002;-1.592;2022-11-12T10:12:40;101689.02;;;10.92;68.81
59545;BME280;45368;55.002;-1.592;2022-11-12T10:15:52;101688.34;;;11.71;66.32
59545;BME280;45368;55.002;-1.592;2022-11-12T10:18:31;101686.86;;;11.54;65.99
59545;BME280;45368;55.002;-1.592;2022-11-12T10:21:12;101680.59;;;12.35;64.72
59545;BME280;45368;55.002;-1.592;2022-11-12T10:23:44;101673.59;;;12.56;63.18
59545;BME280;45368;55.002;-1.592;2022-11-12T10:26:13;101665.22;;;13.89;60.40
59545;BME280;45368;55.002;-1.592;2022-11-12T10:28:44;101661.85;;;13.45;60.16
59545;BME280;45368;55.002;-1.592;2022-11-12T10:31:14;101665.38;;;12.48;62.24
59545;BME280;45368;55.002;-1.592;2022-11-12T10:33:41;101657.63;;;13.90;59.17
59545;BME280;45368;55.002;-1.592;2022-11-12T10:36:22;101653.64;;;14.13;58.75
59545;BME280;45368;55.002;-1.592;2022-11-12T10:38:52;101643.16;;;14.14;58.67
59545;BME280;45368;55.002;-1.592;2022-11-12T10:41:23;101643.95;;;14.26;57.37
59545;BME280;45368;55.002;-1.592;2022-11-12T10:43:57;101641.44;;;15.30;55.07
59545;BME280;45368;55.002;-1.592;2022-11-12T10:46:26;101642.03;;;16.44;52.27
59545;BME280;45368;55.002;-1.592;2022-11-12T10:48:58;101641.34;;;18.57;47.02
59545;BME280;45368;55.002;-1.592;2022-11-12T10:51:29;101644.83;;;18.15;46.73
59545;BME280;45368;55.002;-1.592;2022-11-12T10:53:57;101654.90;;;16.47;50.71
59545;BME280;45368;55.002;-1.592;2022-11-12T10:56:27;101662.19;;;15.07;53.48
59545;BME280;45368;55.002;-1.592;2022-11-12T10:59:15;101663.77;;;14.63;55.07
59545;BME280;45368;55.002;-1.592;2022-11-12T11:01:43;101663.67;;;13.05;59.12
59545;BME280;45368;55.002;-1.592;2022-11-12T11:04:27;101670.80;;;12.86;60.74
59545;BME280;45368;55.002;-1.592;2022-11-12T11:07:01;101685.48;;;11.96;63.81
59545;BME280;45368;55.002;-1.592;2022-11-12T11:09:29;101680.01;;;12.20;63.84
59545;BME280;45368;55.002;-1.592;2022-11-12T11:11:56;101675.47;;;12.95;62.91
59545;BME280;45368;55.002;-1.592;2022-11-12T11:14:30;101670.49;;;13.03;61.68
59545;BME280;45368;55.002;-1.592;2022-11-12T11:17:00;101674.82;;;12.94;62.72
59545;BME280;45368;55.002;-1.592;2022-11-12T11:19:34;101682.71;;;11.97;64.66
59545;BME280;45368;55.002;-1.592;2022-11-12T11:22:38;101685.79;;;11.93;65.57
59545;BME280;45368;55.002;-1.592;2022-11-12T11:25:17;101682.52;;;12.32;65.18
59545;BME280;45368;55.002;-1.592;2022-11-12T11:27:58;101679.84;;;13.22;62.38
59545;BME280;45368;55.002;-1.592;2022-11-12T11:30:27;101683.74;;;11.81;64.14
59545;BME280;45368;55.002;-1.592;2022-11-12T11:33:16;101682.06;;;11.36;65.95
59545;BME280;45368;55.002;-1.592;2022-11-12T11:35:52;101684.28;;;11.52;65.64
59545;BME280;45368;55.002;-1.592;2022-11-12T11:38:34;101695.83;;;10.44;69.41
59545;BME280;45368;55.002;-1.592;2022-11-12T11:41:15;101688.52;;;10.91;68.75
59545;BME280;45368;55.002;-1.592;2022-11-12T11:43:52;101685.36;;;11.93;65.41
59545;BME280;45368;55.002;-1.592;2022-11-12T11:46:40;101673.05;;;12.11;63.10
59545;BME280;45368;55.002;-1.592;2022-11-12T11:49:24;101673.29;;;11.98;62.90
59545;BME280;45368;55.002;-1.592;2022-11-12T11:52:03;101675.93;;;12.00;63.59
59545;BME280;45368;55.002;-1.592;2022-11-12T11:54:48;101681.86;;;11.36;65.05
59545;BME280;45368;55.002;-1.592;2022-11-12T11:57:22;101681.07;;;11.73;65.05
59545;BME280;45368;55.002;-1.592;2022-11-12T12:00:03;101672.66;;;11.77;64.13
59545;BME280;45368;55.002;-1.592;2022-11-12T12:02:48;101669.26;;;10.87;67.32
59545;BME280;45368;55.002;-1.592;2022-11-12T12:05:31;101662.72;;;12.07;64.50
59545;BME280;45368;55.002;-1.592;2022-11-12T12:08:03;101675.84;;;11.62;65.28
59545;BME280;45368;55.002;-1.592;2022-11-12T12:10:42;101675.67;;;11.31;65.74
59545;BME280;45368;55.002;-1.592;2022-11-12T12:13:21;101667.51;;;11.39;64.95
59545;BME280;45368;55.002;-1.592;2022-11-12T12:16:12;101656.90;;;11.77;63.44
59545;BME280;45368;55.002;-1.592;2022-11-12T12:18:48;101655.29;;;11.82;63.04
59545;BME280;45368;55.002;-1.592;2022-11-12T12:21:20;101667.84;;;11.44;65.88
59545;BME280;45368;55.002;-1.592;2022-11-12T12:23:52;101661.09;;;11.10;65.60
59545;BME280;45368;55.002;-1.592;2022-11-12T12:26:25;101653.65;;;12.05;63.59
59545;BME280;45368;55.002;-1.592;2022-11-12T12:28:57;101650.91;;;11.75;63.24
59545;BME280;45368;55.002;-1.592;2022-11-12T12:31:31;101657.97;;;10.99;64.62
59545;BME280;45368;55.002;-1.592;2022-11-12T12:34:02;101663.34;;;11.41;64.26
59545;BME280;45368;55.002;-1.592;2022-11-12T12:36:34;101657.71;;;11.92;62.86
59545;BME280;45368;55.002;-1.592;2022-11-12T12:39:12;101649.25;;;11.80;63.94
59545;BME280;45368;55.002;-1.592;2022-11-12T12:41:45;101639.37;;;10.83;65.82
59545;BME280;45368;55.002;-1.592;2022-11-12T12:44:15;101634.41;;;10.82;67.00
59545;BME280;45368;55.002;-1.592;2022-11-12T12:46:46;101631.73;;;10.92;67.12
59545;BME280;45368;55.002;-1.592;2022-11-12T12:49:20;101632.45;;;10.04;69.32
59545;BME280;45368;55.002;-1.592;2022-11-12T12:51:49;101625.94;;;10.18;69.84
59545;BME280;45368;55.002;-1.592;2022-11-12T12:56:48;101626.98;;;11.14;68.11
59545;BME280;45368;55.002;-1.592;2022-11-12T12:59:21;101620.03;;;10.53;67.85
59545;BME280;45368;55.002;-1.592;2022-11-12T13:01:58;101611.84;;;12.21;63.61
59545;BME280;45368;55.002;-1.592;2022-11-12T13:04:58;101607.95;;;11.98;63.05
59545;BME280;45368;55.002;-1.592;2022-11-12T13:07:39;101601.85;;;12.73;61.46